sensor_id;sensor_type;location;lat;lon;timestamp;pressure;altitude;pressure_sealevel;temperature;humidity
50977;BME280;36992;48.200;12.418;2023-03-19T00:02:20;96382.41;;;12.59;45.34
50977;BME280;36992;48.200;12.418;2023-03-19T00:04:47;96380.03;;;12.57;45.39
50977;BME280;36992;48.200;12.418;2023-03-19T00:07:14;96378.75;;;12.54;45.40
50977;BME280;36992;48.200;12.418;2023-03-19T00:09:41;96380.63;;;12.54;45.43
50977;BME280;36992;48.200;12.418;2023-03-19T00:12:09;96380.63;;;12.54;45.01
50977;BME280;36992;48.200;12.418;2023-03-19T00:14:37;96375.06;;;12.50;45.45
50977;BME280;36992;48.200;12.418;2023-03-19T00:17:03;96382.69;;;12.48;45.27
50977;BME280;36992;48.200;12.418;2023-03-19T00:19:30;96382.22;;;12.46;45.17
50977;BME280;36992;48.200;12.418;2023-03-19T00:21:56;96379.34;;;12.43;45.23
50977;BME280;36992;48.200;12.418;2023-03-19T00:24:23;96381.53;;;12.40;45.38
50977;BME280;36992;48.200;12.418;2023-03-19T00:26:50;96388.38;;;12.38;45.57
50977;BME280;36992;48.200;12.418;2023-03-19T00:29:17;96382.19;;;12.37;45.28
50977;BME280;36992;48.200;12.418;2023-03-19T00:31:44;96379.31;;;12.34;45.46
50977;BME280;36992;48.200;12.418;2023-03-19T00:34:10;96393.44;;;12.31;45.43
50977;BME280;36992;48.200;12.418;2023-03-19T00:36:38;96396.75;;;12.27;45.56
50977;BME280;36992;48.200;12.418;2023-03-19T00:39:04;96397.88;;;12.26;45.24
50977;BME280;36992;48.200;12.418;2023-03-19T00:41:31;96399.59;;;12.22;45.37
50977;BME280;36992;48.200;12.418;2023-03-19T00:43:58;96394.31;;;12.17;45.65
50977;BME280;36992;48.200;12.418;2023-03-19T00:46:25;96391.94;;;12.16;45.94
50977;BME280;36992;48.200;12.418;2023-03-19T00:48:52;96387.75;;;12.09;46.16
50977;BME280;36992;48.200;12.418;2023-03-19T00:51:21;96387.28;;;12.07;45.96
50977;BME280;36992;48.200;12.418;2023-03-19T00:53:48;96391.09;;;12.06;46.09
50977;BME280;36992;48.200;12.418;2023-03-19T00:56:15;96380.59;;;12.05;45.74
50977;BME280;36992;48.200;12.418;2023-03-19T00:58:42;96383.31;;;12.05;45.89
50977;BME280;36992;48.200;12.418;2023-03-19T01:01:11;96377.41;;;12.03;45.99
50977;BME280;36992;48.200;12.418;2023-03-19T01:03:39;96381.22;;;12.01;45.92
50977;BME280;36992;48.200;12.418;2023-03-19T01:06:06;96385.31;;;11.99;46.04
50977;BME280;36992;48.200;12.418;2023-03-19T01:08:32;96391.03;;;11.97;45.99
50977;BME280;36992;48.200;12.418;2023-03-19T01:11:03;96385.63;;;11.97;45.71
50977;BME280;36992;48.200;12.418;2023-03-19T01:13:30;96392.72;;;11.93;45.92
50977;BME280;36992;48.200;12.418;2023-03-19T01:15:57;96388.44;;;11.92;45.85
50977;BME280;36992;48.200;12.418;2023-03-19T01:18:23;96390.66;;;11.90;45.78
50977;BME280;36992;48.200;12.418;2023-03-19T01:20:51;96392.56;;;11.90;45.72
50977;BME280;36992;48.200;12.418;2023-03-19T01:23:18;96396.19;;;11.85;45.85
50977;BME280;36992;48.200;12.418;2023-03-19T01:25:44;96393.31;;;11.81;45.95
50977;BME280;36992;48.200;12.418;2023-03-19T01:28:11;96398.22;;;11.79;46.03
50977;BME280;36992;48.200;12.418;2023-03-19T01:30:38;96402.34;;;11.77;46.15
50977;BME280;36992;48.200;12.418;2023-03-19T01:33:05;96407.53;;;11.73;45.97
50977;BME280;36992;48.200;12.418;2023-03-19T01:35:31;96403.56;;;11.70;46.19
50977;BME280;36992;48.200;12.418;2023-03-19T01:37:59;96398.16;;;11.70;45.92
50977;BME280;36992;48.200;12.418;2023-03-19T01:40:26;96395.59;;;11.65;46.14
50977;BME280;36992;48.200;12.418;2023-03-19T01:42:55;96406.38;;;11.65;46.02
50977;BME280;36992;48.200;12.418;2023-03-19T01:45:33;96401.75;;;11.66;45.65
50977;BME280;36992;48.200;12.418;2023-03-19T01:48:00;96398.41;;;11.60;46.70
50977;BME280;36992;48.200;12.418;2023-03-19T01:50:31;96395.69;;;11.60;46.56
50977;BME280;36992;48.200;12.418;2023-03-19T01:53:01;96391.22;;;11.55;46.95
50977;BME280;36992;48.200;12.418;2023-03-19T01:55:29;96400.22;;;11.51;47.15
50977;BME280;36992;48.200;12.418;2023-03-19T01:57:56;96404.03;;;11.50;47.22
50977;BME280;36992;48.200;12.418;2023-03-19T02:00:23;96404.34;;;11.48;47.26
50977;BME280;36992;48.200;12.418;2023-03-19T02:02:52;96401.84;;;11.52;46.94
50977;BME280;36992;48.200;12.418;2023-03-19T02:05:19;96407.81;;;11.49;47.02
50977;BME280;36992;48.200;12.418;2023-03-19T02:07:51;96408.63;;;11.49;46.83
50977;BME280;36992;48.200;12.418;2023-03-19T02:10:20;96404.84;;;11.50;46.62
50977;BME280;36992;48.200;12.418;2023-03-19T02:12:48;96400.34;;;11.45;46.95
50977;BME280;36992;48.200;12.418;2023-03-19T02:15:14;96403.06;;;11.45;46.78
50977;BME280;36992;48.200;12.418;2023-03-19T02:17:41;96397.16;;;11.43;46.89
50977;BME280;36992;48.200;12.418;2023-03-19T02:20:12;96395.75;;;11.46;46.49
50977;BME280;36992;48.200;12.418;2023-03-19T02:22:49;96397.66;;;11.45;46.46
50977;BME280;36992;48.200;12.418;2023-03-19T02:25:24;96397.16;;;11.43;46.66
50977;BME280;36992;48.200;12.418;2023-03-19T02:27:54;96388.34;;;11.52;45.23
50977;BME280;36992;48.200;12.418;2023-03-19T02:30:24;96392.97;;;11.37;46.72
50977;BME280;36992;48.200;12.418;2023-03-19T02:32:51;96390.38;;;11.32;47.03
50977;BME280;36992;48.200;12.418;2023-03-19T02:35:18;96392.13;;;11.28;47.20
50977;BME280;36992;48.200;12.418;2023-03-19T02:37:45;96391.59;;;11.26;47.13
50977;BME280;36992;48.200;12.418;2023-03-19T02:40:13;96392.13;;;11.28;46.97
50977;BME280;36992;48.200;12.418;2023-03-19T02:42:43;96384.16;;;11.23;47.31
50977;BME280;36992;48.200;12.418;2023-03-19T02:45:11;96390.34;;;11.23;47.00
50977;BME280;36992;48.200;12.418;2023-03-19T02:47:38;96399.31;;;11.18;47.02
50977;BME280;36992;48.200;12.418;2023-03-19T02:50:06;96410.72;;;11.15;47.25
50977;BME280;36992;48.200;12.418;2023-03-19T02:52:33;96411.31;;;11.12;47.43
50977;BME280;36992;48.200;12.418;2023-03-19T02:54:59;96412.72;;;11.10;47.31
50977;BME280;36992;48.200;12.418;2023-03-19T02:57:26;96412.84;;;11.04;47.35
50977;BME280;36992;48.200;12.418;2023-03-19T02:59:52;96420.72;;;11.01;47.31
50977;BME280;36992;48.200;12.418;2023-03-19T03:02:20;96416.75;;;10.98;47.34
50977;BME280;36992;48.200;12.418;2023-03-19T03:04:47;96418.75;;;10.92;47.55
50977;BME280;36992;48.200;12.418;2023-03-19T03:07:13;96411.28;;;10.89;47.76
50977;BME280;36992;48.200;12.418;2023-03-19T03:09:40;96424.22;;;10.87;47.72
50977;BME280;36992;48.200;12.418;2023-03-19T03:12:07;96418.34;;;10.85;47.54
50977;BME280;36992;48.200;12.418;2023-03-19T03:14:34;96427.53;;;10.84;47.74
50977;BME280;36992;48.200;12.418;2023-03-19T03:17:00;96425.13;;;10.83;47.73
50977;BME280;36992;48.200;12.418;2023-03-19T03:19:28;96425.94;;;10.83;47.62
50977;BME280;36992;48.200;12.418;2023-03-19T03:21:55;96428.13;;;10.81;47.74
50977;BME280;36992;48.200;12.418;2023-03-19T03:24:21;96426.53;;;10.80;47.56
50977;BME280;36992;48.200;12.418;2023-03-19T03:26:48;96427.94;;;10.77;47.70
50977;BME280;36992;48.200;12.418;2023-03-19T03:29:14;96433.31;;;10.77;47.66
50977;BME280;36992;48.200;12.418;2023-03-19T03:31:41;96433.63;;;10.76;47.14
50977;BME280;36992;48.200;12.418;2023-03-19T03:34:07;96445.50;;;10.75;47.70
50977;BME280;36992;48.200;12.418;2023-03-19T03:36:35;96437.41;;;10.75;47.51
50977;BME280;36992;48.200;12.418;2023-03-19T03:39:02;96443.13;;;10.73;47.94
50977;BME280;36992;48.200;12.418;2023-03-19T03:41:29;96446.09;;;10.72;47.76
50977;BME280;36992;48.200;12.418;2023-03-19T03:43:55;96453.66;;;10.70;47.78
50977;BME280;36992;48.200;12.418;2023-03-19T03:46:22;96452.06;;;10.69;48.09
50977;BME280;36992;48.200;12.418;2023-03-19T03:48:49;96447.31;;;10.65;48.14
50977;BME280;36992;48.200;12.418;2023-03-19T03:51:16;96450.56;;;10.62;48.01
50977;BME280;36992;48.200;12.418;2023-03-19T03:53:44;96450.91;;;10.61;48.35
50977;BME280;36992;48.200;12.418;2023-03-19T03:56:10;96454.47;;;10.56;47.95
50977;BME280;36992;48.200;12.418;2023-03-19T03:58:37;96465.84;;;10.53;48.08
50977;BME280;36992;48.200;12.418;2023-03-19T04:01:04;96464.06;;;10.48;48.03
50977;BME280;36992;48.200;12.418;2023-03-19T04:03:31;96473.00;;;10.44;48.39
50977;BME280;36992;48.200;12.418;2023-03-19T04:05:58;96465.50;;;10.41;48.49
50977;BME280;36992;48.200;12.418;2023-03-19T04:08:24;96477.16;;;10.36;48.38
50977;BME280;36992;48.200;12.418;2023-03-19T04:10:52;96475.25;;;10.36;48.39
50977;BME280;36992;48.200;12.418;2023-03-19T04:13:19;96473.97;;;10.34;48.59
50977;BME280;36992;48.200;12.418;2023-03-19T04:15:45;96471.59;;;10.32;48.51
50977;BME280;36992;48.200;12.418;2023-03-19T04:18:12;96466.19;;;10.32;48.58
50977;BME280;36992;48.200;12.418;2023-03-19T04:20:39;96471.59;;;10.32;48.67
50977;BME280;36992;48.200;12.418;2023-03-19T04:23:07;96466.19;;;10.32;48.53
50977;BME280;36992;48.200;12.418;2023-03-19T04:25:33;96467.78;;;10.33;48.23
50977;BME280;36992;48.200;12.418;2023-03-19T04:28:01;96474.47;;;10.36;48.17
50977;BME280;36992;48.200;12.418;2023-03-19T04:30:28;96462.41;;;10.33;48.10
50977;BME280;36992;48.200;12.418;2023-03-19T04:32:54;96468.88;;;10.32;48.19
50977;BME280;36992;48.200;12.418;2023-03-19T04:35:21;96456.50;;;10.31;48.22
50977;BME280;36992;48.200;12.418;2023-03-19T04:37:48;96461.38;;;10.29;48.57
50977;BME280;36992;48.200;12.418;2023-03-19T04:40:14;96463.28;;;10.29;48.37
50977;BME280;36992;48.200;12.418;2023-03-19T04:42:42;96470.56;;;10.28;48.64
50977;BME280;36992;48.200;12.418;2023-03-19T04:45:11;96479.13;;;10.30;48.64
50977;BME280;36992;48.200;12.418;2023-03-19T04:47:38;96482.13;;;10.29;48.63
50977;BME280;36992;48.200;12.418;2023-03-19T04:50:06;96482.94;;;10.29;48.24
50977;BME280;36992;48.200;12.418;2023-03-19T04:52:33;96485.13;;;10.27;48.34
50977;BME280;36992;48.200;12.418;2023-03-19T04:55:01;96494.31;;;10.26;48.40
50977;BME280;36992;48.200;12.418;2023-03-19T04:57:27;96484.91;;;10.23;47.92
50977;BME280;36992;48.200;12.418;2023-03-19T04:59:54;96486.31;;;10.21;48.16
50977;BME280;36992;48.200;12.418;2023-03-19T05:02:22;96486.09;;;10.17;48.35
50977;BME280;36992;48.200;12.418;2023-03-19T05:04:48;96489.66;;;10.12;48.78
50977;BME280;36992;48.200;12.418;2023-03-19T05:07:15;96490.25;;;10.09;49.02
50977;BME280;36992;48.200;12.418;2023-03-19T05:09:41;96495.16;;;10.07;49.39
50977;BME280;36992;48.200;12.418;2023-03-19T05:12:10;96490.03;;;10.06;49.33
50977;BME280;36992;48.200;12.418;2023-03-19T05:14:37;96486.06;;;10.03;49.71
50977;BME280;36992;48.200;12.418;2023-03-19T05:17:03;96477.47;;;10.01;49.74
50977;BME280;36992;48.200;12.418;2023-03-19T05:19:31;96470.19;;;10.02;49.61
50977;BME280;36992;48.200;12.418;2023-03-19T05:21:58;96474.25;;;9.99;49.97
50977;BME280;36992;48.200;12.418;2023-03-19T05:24:24;96488.81;;;9.98;50.00
50977;BME280;36992;48.200;12.418;2023-03-19T05:26:51;96491.50;;;9.98;50.17
50977;BME280;36992;48.200;12.418;2023-03-19T05:29:17;96497.38;;;10.00;49.87
50977;BME280;36992;48.200;12.418;2023-03-19T05:31:44;96494.41;;;10.02;49.75
50977;BME280;36992;48.200;12.418;2023-03-19T05:34:12;96500.59;;;10.02;49.74
50977;BME280;36992;48.200;12.418;2023-03-19T05:36:40;96505.09;;;10.07;49.52
50977;BME280;36992;48.200;12.418;2023-03-19T05:39:06;96509.16;;;10.04;49.64
50977;BME280;36992;48.200;12.418;2023-03-19T05:41:33;96517.25;;;10.04;49.70
50977;BME280;36992;48.200;12.418;2023-03-19T05:43:59;96510.75;;;10.05;49.63
50977;BME280;36992;48.200;12.418;2023-03-19T05:46:26;96505.38;;;10.05;49.54
50977;BME280;36992;48.200;12.418;2023-03-19T05:48:52;96519.66;;;10.06;49.47
50977;BME280;36992;48.200;12.418;2023-03-19T05:51:19;96520.75;;;10.05;49.44
50977;BME280;36992;48.200;12.418;2023-03-19T05:53:47;96517.75;;;10.06;49.42
50977;BME280;36992;48.200;12.418;2023-03-19T05:56:13;96524.50;;;10.04;49.66
50977;BME280;36992;48.200;12.418;2023-03-19T05:58:40;96532.91;;;10.02;49.73
50977;BME280;36992;48.200;12.418;2023-03-19T06:01:06;96537.19;;;10.03;49.75
50977;BME280;36992;48.200;12.418;2023-03-19T06:03:33;96542.56;;;10.03;50.06
50977;BME280;36992;48.200;12.418;2023-03-19T06:05:59;96537.19;;;10.03;50.34
50977;BME280;36992;48.200;12.418;2023-03-19T06:08:26;96539.38;;;10.01;50.29
50977;BME280;36992;48.200;12.418;2023-03-19T06:10:54;96540.97;;;10.02;50.17
50977;BME280;36992;48.200;12.418;2023-03-19T06:13:21;96552.31;;;9.99;50.96
50977;BME280;36992;48.200;12.418;2023-03-19T06:15:47;96558.78;;;9.98;50.78
50977;BME280;36992;48.200;12.418;2023-03-19T06:18:14;96554.50;;;9.97;51.07
50977;BME280;36992;48.200;12.418;2023-03-19T06:20:41;96549.41;;;9.95;51.27
50977;BME280;36992;48.200;12.418;2023-03-19T06:23:08;96553.19;;;9.94;51.05
50977;BME280;36992;48.200;12.418;2023-03-19T06:25:35;96562.84;;;9.95;50.94
50977;BME280;36992;48.200;12.418;2023-03-19T06:28:03;96564.16;;;9.98;50.74
50977;BME280;36992;48.200;12.418;2023-03-19T06:30:29;96574.94;;;9.98;51.37
50977;BME280;36992;48.200;12.418;2023-03-19T06:32:56;96575.75;;;9.98;50.99
50977;BME280;36992;48.200;12.418;2023-03-19T06:35:22;96581.91;;;9.99;51.24
50977;BME280;36992;48.200;12.418;2023-03-19T06:37:49;96589.41;;;10.02;51.04
50977;BME280;36992;48.200;12.418;2023-03-19T06:40:16;96580.75;;;10.05;50.93
50977;BME280;36992;48.200;12.418;2023-03-19T06:42:43;96585.56;;;10.08;51.05
50977;BME280;36992;48.200;12.418;2023-03-19T06:45:12;96581.97;;;10.13;51.04
50977;BME280;36992;48.200;12.418;2023-03-19T06:47:40;96588.97;;;10.14;51.01
50977;BME280;36992;48.200;12.418;2023-03-19T06:50:08;96586.75;;;10.16;51.66
50977;BME280;36992;48.200;12.418;2023-03-19T06:52:34;96589.16;;;10.18;51.51
50977;BME280;36992;48.200;12.418;2023-03-19T06:55:01;96595.38;;;10.18;51.91
50977;BME280;36992;48.200;12.418;2023-03-19T06:57:28;96606.63;;;10.20;51.83
50977;BME280;36992;48.200;12.418;2023-03-19T06:59:55;96600.16;;;10.21;51.61
50977;BME280;36992;48.200;12.418;2023-03-19T07:02:23;96608.44;;;10.25;51.05
50977;BME280;36992;48.200;12.418;2023-03-19T07:04:50;96609.53;;;10.24;52.65
50977;BME280;36992;48.200;12.418;2023-03-19T07:07:17;96604.38;;;10.28;52.22
50977;BME280;36992;48.200;12.418;2023-03-19T07:09:43;96606.78;;;10.29;52.65
50977;BME280;36992;48.200;12.418;2023-03-19T07:12:10;96608.38;;;10.30;52.99
50977;BME280;36992;48.200;12.418;2023-03-19T07:14:37;96612.38;;;10.33;53.03
50977;BME280;36992;48.200;12.418;2023-03-19T07:17:03;96617.47;;;10.34;53.00
50977;BME280;36992;48.200;12.418;2023-03-19T07:19:31;96610.41;;;10.38;52.72
50977;BME280;36992;48.200;12.418;2023-03-19T07:21:58;96617.69;;;10.38;52.63
50977;BME280;36992;48.200;12.418;2023-03-19T07:24:24;96626.78;;;10.42;53.42
50977;BME280;36992;48.200;12.418;2023-03-19T07:26:51;96630.50;;;10.46;53.49
50977;BME280;36992;48.200;12.418;2023-03-19T07:29:17;96629.66;;;10.51;52.75
50977;BME280;36992;48.200;12.418;2023-03-19T07:31:44;96642.22;;;10.56;53.50
50977;BME280;36992;48.200;12.418;2023-03-19T07:34:11;96642.44;;;10.59;53.57
50977;BME280;36992;48.200;12.418;2023-03-19T07:36:38;96640.44;;;10.65;53.26
50977;BME280;36992;48.200;12.418;2023-03-19T07:39:05;96649.56;;;10.69;53.80
50977;BME280;36992;48.200;12.418;2023-03-19T07:41:31;96645.47;;;10.72;53.73
50977;BME280;36992;48.200;12.418;2023-03-19T07:43:58;96655.06;;;10.78;53.50
50977;BME280;36992;48.200;12.418;2023-03-19T07:46:25;96657.16;;;10.81;53.54
50977;BME280;36992;48.200;12.418;2023-03-19T07:48:52;96664.38;;;10.86;53.36
50977;BME280;36992;48.200;12.418;2023-03-19T07:51:19;96675.38;;;10.89;53.43
50977;BME280;36992;48.200;12.418;2023-03-19T07:53:47;96669.88;;;10.95;53.05
50977;BME280;36992;48.200;12.418;2023-03-19T07:56:13;96669.59;;;10.96;52.73
50977;BME280;36992;48.200;12.418;2023-03-19T07:58:40;96676.28;;;10.99;52.91
50977;BME280;36992;48.200;12.418;2023-03-19T08:01:07;96674.09;;;11.01;52.75
50977;BME280;36992;48.200;12.418;2023-03-19T08:03:33;96671.63;;;11.04;52.70
50977;BME280;36992;48.200;12.418;2023-03-19T08:06:00;96668.31;;;11.07;52.61
50977;BME280;36992;48.200;12.418;2023-03-19T08:08:26;96672.59;;;11.09;52.96
50977;BME280;36992;48.200;12.418;2023-03-19T08:10:54;96668.22;;;11.13;52.45
50977;BME280;36992;48.200;12.418;2023-03-19T08:13:21;96673.34;;;11.14;52.65
50977;BME280;36992;48.200;12.418;2023-03-19T08:15:48;96674.66;;;11.17;52.19
50977;BME280;36992;48.200;12.418;2023-03-19T08:18:14;96675.91;;;11.19;52.65
50977;BME280;36992;48.200;12.418;2023-03-19T08:20:41;96684.53;;;11.22;52.24
50977;BME280;36992;48.200;12.418;2023-03-19T08:23:09;96680.13;;;11.26;52.73
50977;BME280;36992;48.200;12.418;2023-03-19T08:25:36;96689.53;;;11.28;52.30
50977;BME280;36992;48.200;12.418;2023-03-19T08:28:04;96671.38;;;11.34;52.02
50977;BME280;36992;48.200;12.418;2023-03-19T08:30:31;96678.34;;;11.35;51.86
50977;BME280;36992;48.200;12.418;2023-03-19T08:32:58;96683.13;;;11.38;51.98
50977;BME280;36992;48.200;12.418;2023-03-19T08:35:24;96688.75;;;11.42;51.71
50977;BME280;36992;48.200;12.418;2023-03-19T08:37:52;96687.34;;;11.44;51.49
50977;BME280;36992;48.200;12.418;2023-03-19T08:40:19;96690.56;;;11.46;51.55
50977;BME280;36992;48.200;12.418;2023-03-19T08:42:46;96685.38;;;11.50;51.37
50977;BME280;36992;48.200;12.418;2023-03-19T08:45:15;96689.56;;;11.56;51.39
50977;BME280;36992;48.200;12.418;2023-03-19T08:47:42;96693.56;;;11.59;51.75
50977;BME280;36992;48.200;12.418;2023-03-19T08:50:09;96699.94;;;11.63;51.72
50977;BME280;36992;48.200;12.418;2023-03-19T08:52:36;96698.25;;;11.67;52.17
50977;BME280;36992;48.200;12.418;2023-03-19T08:55:04;96702.25;;;11.70;52.18
50977;BME280;36992;48.200;12.418;2023-03-19T08:57:31;96698.66;;;11.74;52.52
50977;BME280;36992;48.200;12.418;2023-03-19T08:59:58;96706.66;;;11.80;52.15
50977;BME280;36992;48.200;12.418;2023-03-19T09:02:26;96708.16;;;11.86;52.12
50977;BME280;36992;48.200;12.418;2023-03-19T09:04:53;96709.16;;;11.90;51.79
50977;BME280;36992;48.200;12.418;2023-03-19T09:07:19;96718.75;;;11.96;51.76
50977;BME280;36992;48.200;12.418;2023-03-19T09:09:47;96728.59;;;12.06;50.62
50977;BME280;36992;48.200;12.418;2023-03-19T09:12:15;96728.16;;;12.13;50.83
50977;BME280;36992;48.200;12.418;2023-03-19T09:14:42;96733.16;;;12.20;50.51
50977;BME280;36992;48.200;12.418;2023-03-19T09:17:10;96733.53;;;12.27;50.63
50977;BME280;36992;48.200;12.418;2023-03-19T09:19:38;96743.16;;;12.33;50.35
50977;BME280;36992;48.200;12.418;2023-03-19T09:22:05;96734.63;;;12.40;50.80
50977;BME280;36992;48.200;12.418;2023-03-19T09:24:32;96726.91;;;12.47;50.59
50977;BME280;36992;48.200;12.418;2023-03-19T09:26:58;96728.88;;;12.55;50.22
50977;BME280;36992;48.200;12.418;2023-03-19T09:29:25;96731.19;;;12.62;50.28
50977;BME280;36992;48.200;12.418;2023-03-19T09:31:51;96733.44;;;12.69;50.14
50977;BME280;36992;48.200;12.418;2023-03-19T09:34:18;96737.63;;;12.75;50.01
50977;BME280;36992;48.200;12.418;2023-03-19T09:36:46;96729.94;;;12.82;50.01
50977;BME280;36992;48.200;12.418;2023-03-19T09:39:12;96731.69;;;12.87;50.00
50977;BME280;36992;48.200;12.418;2023-03-19T09:41:46;96737.66;;;12.98;49.87
50977;BME280;36992;48.200;12.418;2023-03-19T09:44:15;96734.25;;;13.15;49.16
50977;BME280;36992;48.200;12.418;2023-03-19T09:46:48;96735.19;;;13.11;49.85
50977;BME280;36992;48.200;12.418;2023-03-19T09:49:21;96746.38;;;13.18;49.55
50977;BME280;36992;48.200;12.418;2023-03-19T09:51:52;96742.75;;;13.22;49.29
50977;BME280;36992;48.200;12.418;2023-03-19T09:54:26;96738.81;;;13.29;49.48
50977;BME280;36992;48.200;12.418;2023-03-19T09:56:53;96734.19;;;13.29;49.19
50977;BME280;36992;48.200;12.418;2023-03-19T09:59:22;96743.50;;;13.37;49.18
50977;BME280;36992;48.200;12.418;2023-03-19T10:01:54;96747.97;;;13.42;49.00
50977;BME280;36992;48.200;12.418;2023-03-19T10:04:35;96745.63;;;13.49;48.83
50977;BME280;36992;48.200;12.418;2023-03-19T10:07:13;96746.63;;;13.53;48.99
50977;BME280;36992;48.200;12.418;2023-03-19T10:09:48;96748.69;;;13.56;48.98
50977;BME280;36992;48.200;12.418;2023-03-19T10:12:26;96757.81;;;13.60;48.63
50977;BME280;36992;48.200;12.418;2023-03-19T10:15:02;96750.50;;;13.61;48.84
50977;BME280;36992;48.200;12.418;2023-03-19T10:17:38;96750.16;;;13.62;48.90
50977;BME280;36992;48.200;12.418;2023-03-19T10:20:09;96756.56;;;13.67;49.06
50977;BME280;36992;48.200;12.418;2023-03-19T10:22:45;96764.38;;;13.68;48.73
50977;BME280;36992;48.200;12.418;2023-03-19T10:25:17;96756.59;;;13.75;48.77
50977;BME280;36992;48.200;12.418;2023-03-19T10:27:49;96752.47;;;13.78;48.58
50977;BME280;36992;48.200;12.418;2023-03-19T10:30:19;96756.31;;;13.77;48.93
50977;BME280;36992;48.200;12.418;2023-03-19T10:32:52;96755.84;;;13.84;48.73
50977;BME280;36992;48.200;12.418;2023-03-19T10:35:21;96743.09;;;13.84;49.15
50977;BME280;36992;48.200;12.418;2023-03-19T10:37:50;96744.69;;;13.85;49.03
50977;BME280;36992;48.200;12.418;2023-03-19T10:40:23;96754.75;;;13.94;49.00
50977;BME280;36992;48.200;12.418;2023-03-19T10:43:04;96740.28;;;13.98;48.66
50977;BME280;36992;48.200;12.418;2023-03-19T10:45:33;96740.59;;;13.97;49.30
50977;BME280;36992;48.200;12.418;2023-03-19T10:48:02;96747.59;;;13.98;49.47
50977;BME280;36992;48.200;12.418;2023-03-19T10:50:30;96749.38;;;14.02;49.15
50977;BME280;36992;48.200;12.418;2023-03-19T10:53:20;96748.28;;;14.12;48.54
50977;BME280;36992;48.200;12.418;2023-03-19T10:55:53;96745.56;;;14.12;48.91
50977;BME280;36992;48.200;12.418;2023-03-19T10:58:22;96747.66;;;14.15;48.95
50977;BME280;36992;48.200;12.418;2023-03-19T11:00:56;96745.13;;;14.19;48.71
50977;BME280;36992;48.200;12.418;2023-03-19T11:03:29;96745.91;;;14.20;48.62
50977;BME280;36992;48.200;12.418;2023-03-19T11:06:03;96746.41;;;14.22;48.42
50977;BME280;36992;48.200;12.418;2023-03-19T11:08:34;96747.69;;;14.24;48.34
50977;BME280;36992;48.200;12.418;2023-03-19T11:11:02;96752.78;;;14.26;48.51
50977;BME280;36992;48.200;12.418;2023-03-19T11:13:29;96743.56;;;14.27;48.70
50977;BME280;36992;48.200;12.418;2023-03-19T11:15:59;96735.91;;;14.29;48.30
50977;BME280;36992;48.200;12.418;2023-03-19T11:18:28;96733.84;;;14.35;48.29
50977;BME280;36992;48.200;12.418;2023-03-19T11:20:57;96732.41;;;14.37;48.72
50977;BME280;36992;48.200;12.418;2023-03-19T11:23:27;96735.63;;;14.39;48.49
50977;BME280;36992;48.200;12.418;2023-03-19T11:25:58;96722.38;;;14.47;48.58
50977;BME280;36992;48.200;12.418;2023-03-19T11:28:27;96735.63;;;14.48;48.58
50977;BME280;36992;48.200;12.418;2023-03-19T11:31:01;96729.41;;;14.56;48.72
50977;BME280;36992;48.200;12.418;2023-03-19T11:33:46;96721.91;;;14.62;48.61
50977;BME280;36992;48.200;12.418;2023-03-19T11:36:20;96728.31;;;14.66;48.29
50977;BME280;36992;48.200;12.418;2023-03-19T11:38:56;96722.38;;;14.73;48.30
50977;BME280;36992;48.200;12.418;2023-03-19T11:41:40;96719.53;;;14.78;48.11
50977;BME280;36992;48.200;12.418;2023-03-19T11:44:13;96725.13;;;14.82;47.87
50977;BME280;36992;48.200;12.418;2023-03-19T11:46:44;96719.38;;;14.83;48.11
50977;BME280;36992;48.200;12.418;2023-03-19T11:49:41;96713.97;;;14.92;48.14
50977;BME280;36992;48.200;12.418;2023-03-19T11:52:15;96711.09;;;14.97;48.07
50977;BME280;36992;48.200;12.418;2023-03-19T11:54:53;96707.88;;;15.04;48.08
50977;BME280;36992;48.200;12.418;2023-03-19T11:57:37;96705.16;;;15.13;47.99
50977;BME280;36992;48.200;12.418;2023-03-19T12:00:21;96705.94;;;15.22;47.96
50977;BME280;36992;48.200;12.418;2023-03-19T12:06:09;96695.53;;;15.33;47.34
50977;BME280;36992;48.200;12.418;2023-03-19T12:08:46;96700.47;;;15.40;46.83
50977;BME280;36992;48.200;12.418;2023-03-19T12:11:18;96694.38;;;15.43;46.62
50977;BME280;36992;48.200;12.418;2023-03-19T12:14:04;96691.50;;;15.48;46.71
50977;BME280;36992;48.200;12.418;2023-03-19T12:16:39;96685.75;;;15.50;46.84
50977;BME280;36992;48.200;12.418;2023-03-19T12:19:26;96693.38;;;15.57;46.59
50977;BME280;36992;48.200;12.418;2023-03-19T12:22:08;96687.94;;;15.57;46.56
50977;BME280;36992;48.200;12.418;2023-03-19T12:25:00;96678.84;;;15.61;46.66
50977;BME280;36992;48.200;12.418;2023-03-19T12:27:31;96690.03;;;15.60;46.43
50977;BME280;36992;48.200;12.418;2023-03-19T12:30:11;96682.34;;;15.62;46.30
50977;BME280;36992;48.200;12.418;2023-03-19T12:32:50;96693.19;;;15.62;46.03
50977;BME280;36992;48.200;12.418;2023-03-19T12:35:29;96679.00;;;15.65;45.89
50977;BME280;36992;48.200;12.418;2023-03-19T12:38:02;96677.88;;;15.66;45.95
50977;BME280;36992;48.200;12.418;2023-03-19T12:40:34;96675.59;;;15.68;46.13
50977;BME280;36992;48.200;12.418;2023-03-19T12:43:05;96679.91;;;15.69;46.18
50977;BME280;36992;48.200;12.418;2023-03-19T12:45:37;96679.28;;;15.72;46.24
50977;BME280;36992;48.200;12.418;2023-03-19T12:48:09;96678.16;;;15.73;45.97
50977;BME280;36992;48.200;12.418;2023-03-19T12:50:39;96667.28;;;15.73;45.85
50977;BME280;36992;48.200;12.418;2023-03-19T12:53:25;96664.72;;;15.77;46.08
50977;BME280;36992;48.200;12.418;2023-03-19T12:55:56;96668.22;;;15.77;45.58
50977;BME280;36992;48.200;12.418;2023-03-19T12:58:34;96670.28;;;15.81;45.99
50977;BME280;36992;48.200;12.418;2023-03-19T13:01:06;96663.41;;;15.83;45.92
50977;BME280;36992;48.200;12.418;2023-03-19T13:03:40;96657.31;;;15.86;45.89